sensor_id;sensor_type;location;lat;lon;timestamp;pressure;altitude;pressure_sealevel;temperature
67353;BMP180;54238;52.278;21.056;2023-12-04T00:02:20;100669.40;;;-1.48
67353;BMP180;54238;52.278;21.056;2023-12-04T00:04:49;100671.00;;;-1.40
67353;BMP180;54238;52.278;21.056;2023-12-04T00:07:16;100679.40;;;-1.48
67353;BMP180;54238;52.278;21.056;2023-12-04T00:09:46;100678.20;;;-1.44
67353;BMP180;54238;52.278;21.056;2023-12-04T00:12:13;100678.80;;;-1.40
67353;BMP180;54238;52.278;21.056;2023-12-04T00:14:40;100684.60;;;-1.40
67353;BMP180;54238;52.278;21.056;2023-12-04T00:17:07;100675.20;;;-1.40
67353;BMP180;54238;52.278;21.056;2023-12-04T00:19:39;100687.60;;;-1.40
67353;BMP180;54238;52.278;21.056;2023-12-04T00:22:08;100688.00;;;-1.40
67353;BMP180;54238;52.278;21.056;2023-12-04T00:24:38;100683.40;;;-1.40
67353;BMP180;54238;52.278;21.056;2023-12-04T00:27:08;100685.60;;;-1.40
67353;BMP180;54238;52.278;21.056;2023-12-04T00:29:35;100688.40;;;-1.40
67353;BMP180;54238;52.278;21.056;2023-12-04T00:32:05;100687.80;;;-1.36
67353;BMP180;54238;52.278;21.056;2023-12-04T00:34:32;100690.40;;;-1.40
67353;BMP180;54238;52.278;21.056;2023-12-04T00:37:01;100692.00;;;-1.40
67353;BMP180;54238;52.278;21.056;2023-12-04T00:39:38;100696.60;;;-1.32
67353;BMP180;54238;52.278;21.056;2023-12-04T00:42:09;100699.00;;;-1.30
67353;BMP180;54238;52.278;21.056;2023-12-04T00:44:39;100693.00;;;-1.30
67353;BMP180;54238;52.278;21.056;2023-12-04T00:47:08;100694.80;;;-1.30
67353;BMP180;54238;52.278;21.056;2023-12-04T00:49:37;100699.40;;;-1.30
67353;BMP180;54238;52.278;21.056;2023-12-04T00:52:05;100701.80;;;-1.30
67353;BMP180;54238;52.278;21.056;2023-12-04T00:54:34;100702.40;;;-1.30
67353;BMP180;54238;52.278;21.056;2023-12-04T00:57:03;100705.60;;;-1.20
67353;BMP180;54238;52.278;21.056;2023-12-04T00:59:33;100708.60;;;-1.20
67353;BMP180;54238;52.278;21.056;2023-12-04T01:02:02;100702.60;;;-1.20
67353;BMP180;54238;52.278;21.056;2023-12-04T01:04:31;100710.60;;;-1.20
67353;BMP180;54238;52.278;21.056;2023-12-04T01:06:59;100702.80;;;-1.12
67353;BMP180;54238;52.278;21.056;2023-12-04T01:09:28;100707.80;;;-1.10
67353;BMP180;54238;52.278;21.056;2023-12-04T01:11:57;100707.60;;;-1.10
67353;BMP180;54238;52.278;21.056;2023-12-04T01:14:27;100708.00;;;-1.10
67353;BMP180;54238;52.278;21.056;2023-12-04T01:16:57;100708.00;;;-1.10
67353;BMP180;54238;52.278;21.056;2023-12-04T01:19:26;100719.40;;;-1.10
67353;BMP180;54238;52.278;21.056;2023-12-04T01:21:58;100718.80;;;-1.10
67353;BMP180;54238;52.278;21.056;2023-12-04T01:24:27;100717.00;;;-1.04
67353;BMP180;54238;52.278;21.056;2023-12-04T01:27:04;100716.40;;;-1.00
67353;BMP180;54238;52.278;21.056;2023-12-04T01:29:33;100722.80;;;-1.00
67353;BMP180;54238;52.278;21.056;2023-12-04T01:32:08;100721.60;;;-1.00
67353;BMP180;54238;52.278;21.056;2023-12-04T01:34:37;100721.80;;;-1.00
67353;BMP180;54238;52.278;21.056;2023-12-04T01:37:04;100724.00;;;-1.00
67353;BMP180;54238;52.278;21.056;2023-12-04T01:39:36;100737.60;;;-1.00
67353;BMP180;54238;52.278;21.056;2023-12-04T01:42:04;100728.60;;;-1.00
67353;BMP180;54238;52.278;21.056;2023-12-04T01:44:31;100734.80;;;-0.98
67353;BMP180;54238;52.278;21.056;2023-12-04T01:47:00;100734.20;;;-0.90
67353;BMP180;54238;52.278;21.056;2023-12-04T01:49:27;100735.40;;;-0.90
67353;BMP180;54238;52.278;21.056;2023-12-04T01:51:57;100729.20;;;-0.90
67353;BMP180;54238;52.278;21.056;2023-12-04T01:54:24;100727.00;;;-0.90
67353;BMP180;54238;52.278;21.056;2023-12-04T01:56:52;100725.80;;;-0.90
67353;BMP180;54238;52.278;21.056;2023-12-04T01:59:19;100743.40;;;-0.90
67353;BMP180;54238;52.278;21.056;2023-12-04T02:01:50;100749.40;;;-0.90
67353;BMP180;54238;52.278;21.056;2023-12-04T02:04:17;100759.80;;;-0.90
67353;BMP180;54238;52.278;21.056;2023-12-04T02:06:46;100765.00;;;-0.90
67353;BMP180;54238;52.278;21.056;2023-12-04T02:09:14;100771.20;;;-0.90
67353;BMP180;54238;52.278;21.056;2023-12-04T02:11:48;100771.40;;;-0.90
67353;BMP180;54238;52.278;21.056;2023-12-04T02:14:20;100776.40;;;-0.90
67353;BMP180;54238;52.278;21.056;2023-12-04T02:16:48;100768.20;;;-1.00
67353;BMP180;54238;52.278;21.056;2023-12-04T02:19:18;100756.20;;;-1.00
67353;BMP180;54238;52.278;21.056;2023-12-04T02:21:50;100770.80;;;-1.00
67353;BMP180;54238;52.278;21.056;2023-12-04T02:24:17;100762.20;;;-1.00
67353;BMP180;54238;52.278;21.056;2023-12-04T02:26:53;100760.40;;;-1.00
67353;BMP180;54238;52.278;21.056;2023-12-04T02:29:37;100764.00;;;-1.00
67353;BMP180;54238;52.278;21.056;2023-12-04T02:32:07;100758.00;;;-1.00
67353;BMP180;54238;52.278;21.056;2023-12-04T02:34:39;100767.20;;;-1.00
67353;BMP180;54238;52.278;21.056;2023-12-04T02:37:12;100762.40;;;-1.00
67353;BMP180;54238;52.278;21.056;2023-12-04T02:39:45;100763.00;;;-1.00
67353;BMP180;54238;52.278;21.056;2023-12-04T02:42:21;100772.80;;;-1.00
67353;BMP180;54238;52.278;21.056;2023-12-04T02:44:48;100769.80;;;-1.00
67353;BMP180;54238;52.278;21.056;2023-12-04T02:47:17;100776.00;;;-1.04
67353;BMP180;54238;52.278;21.056;2023-12-04T02:49:44;100766.40;;;-1.10
67353;BMP180;54238;52.278;21.056;2023-12-04T02:52:16;100761.60;;;-1.20
67353;BMP180;54238;52.278;21.056;2023-12-04T02:54:45;100764.00;;;-1.20
67353;BMP180;54238;52.278;21.056;2023-12-04T02:57:15;100770.00;;;-1.20
67353;BMP180;54238;52.278;21.056;2023-12-04T02:59:42;100776.00;;;-1.30
67353;BMP180;54238;52.278;21.056;2023-12-04T03:02:15;100779.40;;;-1.30
67353;BMP180;54238;52.278;21.056;2023-12-04T03:04:45;100778.60;;;-1.30
67353;BMP180;54238;52.278;21.056;2023-12-04T03:07:13;100779.00;;;-1.40
67353;BMP180;54238;52.278;21.056;2023-12-04T03:09:44;100783.00;;;-1.40
67353;BMP180;54238;52.278;21.056;2023-12-04T03:12:11;100782.40;;;-1.42
67353;BMP180;54238;52.278;21.056;2023-12-04T03:14:43;100784.40;;;-1.46
67353;BMP180;54238;52.278;21.056;2023-12-04T03:17:14;100788.40;;;-1.50
67353;BMP180;54238;52.278;21.056;2023-12-04T03:19:41;100785.00;;;-1.50
67353;BMP180;54238;52.278;21.056;2023-12-04T03:22:08;100787.20;;;-1.50
67353;BMP180;54238;52.278;21.056;2023-12-04T03:24:40;100798.20;;;-1.60
67353;BMP180;54238;52.278;21.056;2023-12-04T03:27:12;100792.00;;;-1.60
67353;BMP180;54238;52.278;21.056;2023-12-04T03:29:43;100793.80;;;-1.60
67353;BMP180;54238;52.278;21.056;2023-12-04T03:32:10;100793.80;;;-1.70
67353;BMP180;54238;52.278;21.056;2023-12-04T03:34:39;100798.80;;;-1.70
67353;BMP180;54238;52.278;21.056;2023-12-04T03:37:06;100796.40;;;-1.70
67353;BMP180;54238;52.278;21.056;2023-12-04T03:39:33;100805.40;;;-1.70
67353;BMP180;54238;52.278;21.056;2023-12-04T03:42:03;100806.60;;;-1.70
67353;BMP180;54238;52.278;21.056;2023-12-04T03:44:40;100806.00;;;-1.70
67353;BMP180;54238;52.278;21.056;2023-12-04T03:47:09;100815.60;;;-1.70
67353;BMP180;54238;52.278;21.056;2023-12-04T03:49:40;100814.40;;;-1.74
67353;BMP180;54238;52.278;21.056;2023-12-04T03:52:15;100818.40;;;-1.80
67353;BMP180;54238;52.278;21.056;2023-12-04T03:54:44;100814.60;;;-1.80
67353;BMP180;54238;52.278;21.056;2023-12-04T03:57:13;100813.40;;;-1.80
67353;BMP180;54238;52.278;21.056;2023-12-04T03:59:46;100812.00;;;-1.80
67353;BMP180;54238;52.278;21.056;2023-12-04T04:02:15;100810.00;;;-1.80
67353;BMP180;54238;52.278;21.056;2023-12-04T04:04:42;100820.00;;;-1.80
67353;BMP180;54238;52.278;21.056;2023-12-04T04:07:12;100811.00;;;-1.80
67353;BMP180;54238;52.278;21.056;2023-12-04T04:09:38;100816.60;;;-1.80
67353;BMP180;54238;52.278;21.056;2023-12-04T04:12:06;100821.20;;;-1.80
67353;BMP180;54238;52.278;21.056;2023-12-04T04:14:59;100820.40;;;-1.80
67353;BMP180;54238;52.278;21.056;2023-12-04T04:17:29;100827.20;;;-1.80
67353;BMP180;54238;52.278;21.056;2023-12-04T04:20:00;100825.60;;;-1.80
67353;BMP180;54238;52.278;21.056;2023-12-04T04:22:34;100835.00;;;-1.80
67353;BMP180;54238;52.278;21.056;2023-12-04T04:25:08;100825.20;;;-1.80
67353;BMP180;54238;52.278;21.056;2023-12-04T04:27:40;100818.00;;;-1.90
67353;BMP180;54238;52.278;21.056;2023-12-04T04:30:10;100823.00;;;-1.80
67353;BMP180;54238;52.278;21.056;2023-12-04T04:32:40;100824.00;;;-1.84
67353;BMP180;54238;52.278;21.056;2023-12-04T04:35:11;100824.20;;;-1.90
67353;BMP180;54238;52.278;21.056;2023-12-04T04:37:40;100828.60;;;-1.90
67353;BMP180;54238;52.278;21.056;2023-12-04T04:40:13;100831.80;;;-1.90
67353;BMP180;54238;52.278;21.056;2023-12-04T04:42:43;100824.80;;;-1.90
67353;BMP180;54238;52.278;21.056;2023-12-04T04:45:14;100833.20;;;-1.90
67353;BMP180;54238;52.278;21.056;2023-12-04T04:47:41;100829.60;;;-1.92
67353;BMP180;54238;52.278;21.056;2023-12-04T04:50:11;100831.20;;;-1.90
67353;BMP180;54238;52.278;21.056;2023-12-04T04:52:41;100831.60;;;-1.90
67353;BMP180;54238;52.278;21.056;2023-12-04T04:55:13;100834.40;;;-1.90
67353;BMP180;54238;52.278;21.056;2023-12-04T04:57:42;100839.20;;;-1.94
67353;BMP180;54238;52.278;21.056;2023-12-04T05:00:13;100843.00;;;-1.94
67353;BMP180;54238;52.278;21.056;2023-12-04T05:02:40;100839.00;;;-2.00
67353;BMP180;54238;52.278;21.056;2023-12-04T05:05:11;100841.60;;;-2.00
67353;BMP180;54238;52.278;21.056;2023-12-04T05:07:38;100843.20;;;-2.00
67353;BMP180;54238;52.278;21.056;2023-12-04T05:10:08;100843.60;;;-2.00
67353;BMP180;54238;52.278;21.056;2023-12-04T05:12:35;100835.00;;;-2.00
67353;BMP180;54238;52.278;21.056;2023-12-04T05:15:02;100836.40;;;-2.00
67353;BMP180;54238;52.278;21.056;2023-12-04T05:17:32;100849.60;;;-2.00
67353;BMP180;54238;52.278;21.056;2023-12-04T05:19:59;100851.40;;;-2.00
67353;BMP180;54238;52.278;21.056;2023-12-04T05:22:34;100848.60;;;-2.00
67353;BMP180;54238;52.278;21.056;2023-12-04T05:25:01;100849.80;;;-2.00
67353;BMP180;54238;52.278;21.056;2023-12-04T05:27:30;100851.00;;;-2.08
67353;BMP180;54238;52.278;21.056;2023-12-04T05:29:59;100866.00;;;-2.10
67353;BMP180;54238;52.278;21.056;2023-12-04T05:32:29;100855.00;;;-2.10
67353;BMP180;54238;52.278;21.056;2023-12-04T05:34:56;100856.80;;;-2.16
67353;BMP180;54238;52.278;21.056;2023-12-04T05:37:28;100857.00;;;-2.20
67353;BMP180;54238;52.278;21.056;2023-12-04T05:40:02;100854.20;;;-2.20
67353;BMP180;54238;52.278;21.056;2023-12-04T05:42:35;100854.20;;;-2.20
67353;BMP180;54238;52.278;21.056;2023-12-04T05:45:10;100856.40;;;-2.20
67353;BMP180;54238;52.278;21.056;2023-12-04T05:47:39;100853.20;;;-2.20
67353;BMP180;54238;52.278;21.056;2023-12-04T05:50:09;100856.40;;;-2.20
67353;BMP180;54238;52.278;21.056;2023-12-04T05:52:36;100861.20;;;-2.20
67353;BMP180;54238;52.278;21.056;2023-12-04T05:55:04;100868.20;;;-2.20
67353;BMP180;54238;52.278;21.056;2023-12-04T05:57:33;100857.00;;;-2.30
67353;BMP180;54238;52.278;21.056;2023-12-04T06:00:00;100861.00;;;-2.20
67353;BMP180;54238;52.278;21.056;2023-12-04T06:02:29;100865.80;;;-2.20
67353;BMP180;54238;52.278;21.056;2023-12-04T06:04:59;100868.20;;;-2.20
67353;BMP180;54238;52.278;21.056;2023-12-04T06:07:28;100876.20;;;-2.20
67353;BMP180;54238;52.278;21.056;2023-12-04T06:09:57;100870.60;;;-2.20
67353;BMP180;54238;52.278;21.056;2023-12-04T06:12:27;100871.40;;;-2.20
67353;BMP180;54238;52.278;21.056;2023-12-04T06:14:54;100875.80;;;-2.28
67353;BMP180;54238;52.278;21.056;2023-12-04T06:17:23;100873.20;;;-2.30
67353;BMP180;54238;52.278;21.056;2023-12-04T06:19:53;100874.40;;;-2.20
67353;BMP180;54238;52.278;21.056;2023-12-04T06:22:23;100874.80;;;-2.20
67353;BMP180;54238;52.278;21.056;2023-12-04T06:24:53;100877.80;;;-2.20
67353;BMP180;54238;52.278;21.056;2023-12-04T06:27:23;100877.40;;;-2.20
67353;BMP180;54238;52.278;21.056;2023-12-04T06:29:51;100876.80;;;-2.20
67353;BMP180;54238;52.278;21.056;2023-12-04T06:32:22;100879.20;;;-2.20
67353;BMP180;54238;52.278;21.056;2023-12-04T06:34:54;100886.00;;;-2.20
67353;BMP180;54238;52.278;21.056;2023-12-04T06:37:26;100882.40;;;-2.20
67353;BMP180;54238;52.278;21.056;2023-12-04T06:40:01;100879.00;;;-2.12
67353;BMP180;54238;52.278;21.056;2023-12-04T06:42:31;100884.80;;;-2.20
67353;BMP180;54238;52.278;21.056;2023-12-04T06:44:58;100886.80;;;-2.18
67353;BMP180;54238;52.278;21.056;2023-12-04T06:47:26;100886.60;;;-2.10
67353;BMP180;54238;52.278;21.056;2023-12-04T06:49:54;100884.60;;;-2.10
67353;BMP180;54238;52.278;21.056;2023-12-04T06:52:23;100886.80;;;-2.04
67353;BMP180;54238;52.278;21.056;2023-12-04T06:54:52;100882.80;;;-2.00
67353;BMP180;54238;52.278;21.056;2023-12-04T06:57:21;100882.20;;;-2.00
67353;BMP180;54238;52.278;21.056;2023-12-04T06:59:48;100888.20;;;-2.00
67353;BMP180;54238;52.278;21.056;2023-12-04T07:02:15;100893.80;;;-2.00
67353;BMP180;54238;52.278;21.056;2023-12-04T07:04:42;100887.00;;;-2.00
67353;BMP180;54238;52.278;21.056;2023-12-04T07:07:09;100891.80;;;-2.00
67353;BMP180;54238;52.278;21.056;2023-12-04T07:09:39;100881.60;;;-1.96
67353;BMP180;54238;52.278;21.056;2023-12-04T07:12:06;100882.20;;;-1.90
67353;BMP180;54238;52.278;21.056;2023-12-04T07:14:35;100879.00;;;-1.90
67353;BMP180;54238;52.278;21.056;2023-12-04T07:17:02;100880.60;;;-1.90
67353;BMP180;54238;52.278;21.056;2023-12-04T07:19:29;100885.20;;;-1.90
67353;BMP180;54238;52.278;21.056;2023-12-04T07:21:59;100885.20;;;-1.90
67353;BMP180;54238;52.278;21.056;2023-12-04T07:24:34;100891.80;;;-1.90
67353;BMP180;54238;52.278;21.056;2023-12-04T07:27:04;100895.60;;;-1.82
67353;BMP180;54238;52.278;21.056;2023-12-04T07:29:38;100899.00;;;-1.90
67353;BMP180;54238;52.278;21.056;2023-12-04T07:32:11;100896.00;;;-1.90
67353;BMP180;54238;52.278;21.056;2023-12-04T07:34:38;100902.20;;;-1.90
67353;BMP180;54238;52.278;21.056;2023-12-04T07:37:10;100898.80;;;-1.90
67353;BMP180;54238;52.278;21.056;2023-12-04T07:39:39;100906.60;;;-1.90
67353;BMP180;54238;52.278;21.056;2023-12-04T07:42:11;100911.40;;;-1.80
67353;BMP180;54238;52.278;21.056;2023-12-04T07:44:43;100906.20;;;-1.78
67353;BMP180;54238;52.278;21.056;2023-12-04T07:47:10;100906.80;;;-1.72
67353;BMP180;54238;52.278;21.056;2023-12-04T07:49:38;100905.80;;;-1.70
67353;BMP180;54238;52.278;21.056;2023-12-04T07:52:05;100906.40;;;-1.70
67353;BMP180;54238;52.278;21.056;2023-12-04T07:54:37;100903.40;;;-1.70
67353;BMP180;54238;52.278;21.056;2023-12-04T07:57:08;100906.20;;;-1.70
67353;BMP180;54238;52.278;21.056;2023-12-04T07:59:37;100902.00;;;-1.70
67353;BMP180;54238;52.278;21.056;2023-12-04T08:02:05;100904.20;;;-1.70
67353;BMP180;54238;52.278;21.056;2023-12-04T08:04:32;100910.80;;;-1.66
67353;BMP180;54238;52.278;21.056;2023-12-04T08:07:03;100918.20;;;-1.60
67353;BMP180;54238;52.278;21.056;2023-12-04T08:09:30;100914.80;;;-1.62
67353;BMP180;54238;52.278;21.056;2023-12-04T08:12:02;100918.20;;;-1.68
67353;BMP180;54238;52.278;21.056;2023-12-04T08:14:34;100922.20;;;-1.70
67353;BMP180;54238;52.278;21.056;2023-12-04T08:17:01;100925.80;;;-1.70
67353;BMP180;54238;52.278;21.056;2023-12-04T08:19:35;100926.20;;;-1.70
67353;BMP180;54238;52.278;21.056;2023-12-04T08:22:07;100918.20;;;-1.70
67353;BMP180;54238;52.278;21.056;2023-12-04T08:24:34;100919.40;;;-1.60
67353;BMP180;54238;52.278;21.056;2023-12-04T08:27:03;100926.80;;;-1.60
67353;BMP180;54238;52.278;21.056;2023-12-04T08:29:32;100925.80;;;-1.56
67353;BMP180;54238;52.278;21.056;2023-12-04T08:32:05;100932.80;;;-1.56
67353;BMP180;54238;52.278;21.056;2023-12-04T08:34:32;100934.00;;;-1.50
67353;BMP180;54238;52.278;21.056;2023-12-04T08:37:03;100931.80;;;-1.50
67353;BMP180;54238;52.278;21.056;2023-12-04T08:39:35;100937.40;;;-1.50
67353;BMP180;54238;52.278;21.056;2023-12-04T08:42:07;100938.20;;;-1.50
67353;BMP180;54238;52.278;21.056;2023-12-04T08:44:37;100936.20;;;-1.52
67353;BMP180;54238;52.278;21.056;2023-12-04T08:47:07;100945.80;;;-1.60
67353;BMP180;54238;52.278;21.056;2023-12-04T08:49:42;100944.60;;;-1.60
67353;BMP180;54238;52.278;21.056;2023-12-04T08:52:14;100946.00;;;-1.60
67353;BMP180;54238;52.278;21.056;2023-12-04T08:54:46;100947.00;;;-1.60
67353;BMP180;54238;52.278;21.056;2023-12-04T08:57:16;100948.60;;;-1.60
67353;BMP180;54238;52.278;21.056;2023-12-04T08:59:50;100948.20;;;-1.60
67353;BMP180;54238;52.278;21.056;2023-12-04T09:02:19;100950.80;;;-1.60
67353;BMP180;54238;52.278;21.056;2023-12-04T09:04:49;100953.00;;;-1.60
67353;BMP180;54238;52.278;21.056;2023-12-04T09:07:18;100963.60;;;-1.60
67353;BMP180;54238;52.278;21.056;2023-12-04T09:09:45;100961.60;;;-1.60
67353;BMP180;54238;52.278;21.056;2023-12-04T09:12:13;100964.00;;;-1.60
67353;BMP180;54238;52.278;21.056;2023-12-04T09:14:50;100961.20;;;-1.70
67353;BMP180;54238;52.278;21.056;2023-12-04T09:17:17;100960.00;;;-1.70
67353;BMP180;54238;52.278;21.056;2023-12-04T09:19:44;100957.80;;;-1.70
67353;BMP180;54238;52.278;21.056;2023-12-04T09:22:11;100960.00;;;-1.70
67353;BMP180;54238;52.278;21.056;2023-12-04T09:24:41;100958.20;;;-1.60
67353;BMP180;54238;52.278;21.056;2023-12-04T09:27:13;100954.80;;;-1.60
67353;BMP180;54238;52.278;21.056;2023-12-04T09:29:41;100965.00;;;-1.50
67353;BMP180;54238;52.278;21.056;2023-12-04T09:32:09;100955.80;;;-1.54
67353;BMP180;54238;52.278;21.056;2023-12-04T09:34:36;100953.40;;;-1.60
67353;BMP180;54238;52.278;21.056;2023-12-04T09:37:10;100951.80;;;-1.56
67353;BMP180;54238;52.278;21.056;2023-12-04T09:39:39;100952.60;;;-1.50
67353;BMP180;54238;52.278;21.056;2023-12-04T09:42:10;100954.20;;;-1.50
67353;BMP180;54238;52.278;21.056;2023-12-04T09:44:37;100948.40;;;-1.40
67353;BMP180;54238;52.278;21.056;2023-12-04T09:47:10;100949.60;;;-1.36
67353;BMP180;54238;52.278;21.056;2023-12-04T09:49:42;100947.40;;;-1.30
67353;BMP180;54238;52.278;21.056;2023-12-04T09:52:10;100946.80;;;-1.40
67353;BMP180;54238;52.278;21.056;2023-12-04T09:54:41;100944.60;;;-1.48
67353;BMP180;54238;52.278;21.056;2023-12-04T09:57:11;100945.00;;;-1.50
67353;BMP180;54238;52.278;21.056;2023-12-04T09:59:47;100946.00;;;-1.50
67353;BMP180;54238;52.278;21.056;2023-12-04T10:02:17;100947.20;;;-1.50
67353;BMP180;54238;52.278;21.056;2023-12-04T10:04:47;100945.20;;;-1.50
67353;BMP180;54238;52.278;21.056;2023-12-04T10:07:19;100947.20;;;-1.50
67353;BMP180;54238;52.278;21.056;2023-12-04T10:09:50;100949.20;;;-1.40
67353;BMP180;54238;52.278;21.056;2023-12-04T10:12:30;100950.40;;;-1.40
67353;BMP180;54238;52.278;21.056;2023-12-04T10:15:12;100939.80;;;-1.40
67353;BMP180;54238;52.278;21.056;2023-12-04T10:17:44;100935.00;;;-1.42
67353;BMP180;54238;52.278;21.056;2023-12-04T10:20:16;100934.20;;;-1.40
67353;BMP180;54238;52.278;21.056;2023-12-04T10:22:55;100942.00;;;-1.40
67353;BMP180;54238;52.278;21.056;2023-12-04T10:25:30;100934.00;;;-1.40
67353;BMP180;54238;52.278;21.056;2023-12-04T10:28:12;100927.60;;;-1.40
67353;BMP180;54238;52.278;21.056;2023-12-04T10:30:47;100937.40;;;-1.36
67353;BMP180;54238;52.278;21.056;2023-12-04T10:33:15;100938.40;;;-1.32
67353;BMP180;54238;52.278;21.056;2023-12-04T10:35:49;100931.40;;;-1.30
67353;BMP180;54238;52.278;21.056;2023-12-04T10:38:19;100932.60;;;-1.30
67353;BMP180;54238;52.278;21.056;2023-12-04T10:40:51;100923.00;;;-1.30
67353;BMP180;54238;52.278;21.056;2023-12-04T10:43:22;100932.40;;;-1.30
67353;BMP180;54238;52.278;21.056;2023-12-04T10:45:55;100931.20;;;-1.26
67353;BMP180;54238;52.278;21.056;2023-12-04T10:48:25;100927.00;;;-1.20
67353;BMP180;54238;52.278;21.056;2023-12-04T10:50:53;100924.80;;;-1.20
67353;BMP180;54238;52.278;21.056;2023-12-04T10:53:21;100923.00;;;-1.12
67353;BMP180;54238;52.278;21.056;2023-12-04T10:56:01;100928.00;;;-1.10
67353;BMP180;54238;52.278;21.056;2023-12-04T10:58:29;100926.80;;;-1.00
67353;BMP180;54238;52.278;21.056;2023-12-04T11:01:00;100929.80;;;-1.00
67353;BMP180;54238;52.278;21.056;2023-12-04T11:03:40;100931.40;;;-0.90
67353;BMP180;54238;52.278;21.056;2023-12-04T11:06:16;100932.80;;;-0.90
67353;BMP180;54238;52.278;21.056;2023-12-04T11:08:48;100943.60;;;-0.90
67353;BMP180;54238;52.278;21.056;2023-12-04T11:11:30;100932.40;;;-0.90
67353;BMP180;54238;52.278;21.056;2023-12-04T11:14:04;100932.20;;;-0.80
67353;BMP180;54238;52.278;21.056;2023-12-04T11:16:43;100929.40;;;-0.70
67353;BMP180;54238;52.278;21.056;2023-12-04T11:19:25;100929.20;;;-0.60
67353;BMP180;54238;52.278;21.056;2023-12-04T11:22:01;100928.60;;;-0.60
67353;BMP180;54238;52.278;21.056;2023-12-04T11:24:32;100930.20;;;-0.60
67353;BMP180;54238;52.278;21.056;2023-12-04T11:27:03;100935.60;;;-0.50
67353;BMP180;54238;52.278;21.056;2023-12-04T11:29:35;100930.20;;;-0.40
67353;BMP180;54238;52.278;21.056;2023-12-04T11:32:14;100930.40;;;-0.30
67353;BMP180;54238;52.278;21.056;2023-12-04T11:34:54;100928.00;;;-0.30
67353;BMP180;54238;52.278;21.056;2023-12-04T11:37:22;100933.20;;;-0.30
67353;BMP180;54238;52.278;21.056;2023-12-04T11:39:53;100931.60;;;-0.30
67353;BMP180;54238;52.278;21.056;2023-12-04T11:42:24;100937.20;;;-0.30
67353;BMP180;54238;52.278;21.056;2023-12-04T11:44:57;100931.80;;;-0.30
67353;BMP180;54238;52.278;21.056;2023-12-04T11:47:25;100931.00;;;-0.30
67353;BMP180;54238;52.278;21.056;2023-12-04T11:49:54;100929.20;;;-0.30
67353;BMP180;54238;52.278;21.056;2023-12-04T11:52:34;100925.40;;;-0.30
67353;BMP180;54238;52.278;21.056;2023-12-04T11:55:06;100915.80;;;-0.30
67353;BMP180;54238;52.278;21.056;2023-12-04T11:57:38;100922.80;;;-0.36
67353;BMP180;54238;52.278;21.056;2023-12-04T12:03:08;100917.20;;;-0.34
67353;BMP180;54238;52.278;21.056;2023-12-04T12:05:37;100913.20;;;-0.30
67353;BMP180;54238;52.278;21.056;2023-12-04T12:08:08;100905.00;;;-0.30
67353;BMP180;54238;52.278;21.056;2023-12-04T12:10:35;100907.40;;;-0.30
67353;BMP180;54238;52.278;21.056;2023-12-04T12:13:05;100905.80;;;-0.30
67353;BMP180;54238;52.278;21.056;2023-12-04T12:15:37;100902.60;;;-0.20
67353;BMP180;54238;52.278;21.056;2023-12-04T12:18:06;100908.20;;;-0.20
67353;BMP180;54238;52.278;21.056;2023-12-04T12:20:39;100910.40;;;-0.20
67353;BMP180;54238;52.278;21.056;2023-12-04T12:23:06;100908.40;;;-0.20
67353;BMP180;54238;52.278;21.056;2023-12-04T12:25:41;100912.40;;;-0.16
67353;BMP180;54238;52.278;21.056;2023-12-04T12:28:08;100909.00;;;-0.10
67353;BMP180;54238;52.278;21.056;2023-12-04T12:30:35;100906.20;;;-0.10
67353;BMP180;54238;52.278;21.056;2023-12-04T12:33:05;100903.00;;;-0.10
67353;BMP180;54238;52.278;21.056;2023-12-04T12:35:32;100903.80;;;0.00
67353;BMP180;54238;52.278;21.056;2023-12-04T12:38:02;100905.20;;;0.00
67353;BMP180;54238;52.278;21.056;2023-12-04T12:40:36;100901.40;;;-0.08
67353;BMP180;54238;52.278;21.056;2023-12-04T12:43:08;100895.80;;;-0.10
67353;BMP180;54238;52.278;21.056;2023-12-04T12:45:46;100892.60;;;0.00
67353;BMP180;54238;52.278;21.056;2023-12-04T12:48:21;100890.80;;;0.00
67353;BMP180;54238;52.278;21.056;2023-12-04T12:50:50;100887.60;;;0.00
67353;BMP180;54238;52.278;21.056;2023-12-04T12:53:20;100896.00;;;0.10
67353;BMP180;54238;52.278;21.056;2023-12-04T12:55:48;100883.20;;;0.10
67353;BMP180;54238;52.278;21.056;2023-12-04T12:58:16;100887.20;;;0.10
67353;BMP180;54238;52.278;21.056;2023-12-04T13:00:49;100887.20;;;0.10
67353;BMP180;54238;52.278;21.056;2023-12-04T13:03:21;100888.00;;;0.02
67353;BMP180;54238;52.278;21.056;2023-12-04T13:05:50;100881.80;;;0.06
67353;BMP180;54238;52.278;21.056;2023-12-04T13:08:20;100882.20;;;0.10
67353;BMP180;54238;52.278;21.056;2023-12-04T13:10:47;100873.00;;;0.10
67353;BMP180;54238;52.278;21.056;2023-12-04T13:13:16;100874.20;;;0.10
67353;BMP180;54238;52.278;21.056;2023-12-04T13:15:45;100874.40;;;0.10
67353;BMP180;54238;52.278;21.056;2023-12-04T13:18:14;100881.80;;;0.10
67353;BMP180;54238;52.278;21.056;2023-12-04T13:20:46;100884.20;;;0.10
67353;BMP180;54238;52.278;21.056;2023-12-04T13:23:16;100876.20;;;0.00
67353;BMP180;54238;52.278;21.056;2023-12-04T13:25:43;100872.00;;;0.10
67353;BMP180;54238;52.278;21.056;2023-12-04T13:28:10;100871.20;;;0.10
67353;BMP180;54238;52.278;21.056;2023-12-04T13:30:42;100867.80;;;0.20
67353;BMP180;54238;52.278;21.056;2023-12-04T13:33:12;100870.00;;;0.20
67353;BMP180;54238;52.278;21.056;2023-12-04T13:35:39;100869.00;;;0.16
67353;BMP180;54238;52.278;21.056;2023-12-04T13:38:08;100859.60;;;0.10
67353;BMP180;54238;52.278;21.056;2023-12-04T13:40:39;100867.00;;;0.10
67353;BMP180;54238;52.278;21.056;2023-12-04T13:43:06;100866.60;;;0.10
67353;BMP180;54238;52.278;21.056;2023-12-04T13:45:52;100863.80;;;0.00
67353;BMP180;54238;52.278;21.056;2023-12-04T13:48:22;100862.40;;;0.10
67353;BMP180;54238;52.278;21.056;2023-12-04T13:50:54;100865.20;;;0.10
67353;BMP180;54238;52.278;21.056;2023-12-04T13:53:26;100858.80;;;0.10
67353;BMP180;54238;52.278;21.056;2023-12-04T13:55:59;100860.40;;;0.10
67353;BMP180;54238;52.278;21.056;2023-12-04T13:58:26;100860.20;;;0.06
67353;BMP180;54238;52.278;21.056;2023-12-04T14:01:11;100864.20;;;0.06
67353;BMP180;54238;52.278;21.056;2023-12-04T14:03:47;100865.00;;;0.00
67353;BMP180;54238;52.278;21.056;2023-12-04T14:06:19;100868.20;;;0.00
67353;BMP180;54238;52.278;21.056;2023-12-04T14:08:46;100872.80;;;0.00